ORER/EBL METAR and TAF weather

Enter ICAO airport designator
Station Type Date Time Source
ORER METAR 2021/09/16 10:00 UTC NOAA

ORER 161000Z 33012KT CAVOK 35/02 Q1011


Station Type Date Time Source
ORER Decoded METAR 2021/09/16 10:00 UTC NOAA

Station name not available
Sep 16, 2021 - 06:00 AM EDT / 2021.09.16 1000 UTC
Wind: from the NNW (330 degrees) at 14 MPH (12 KT):0
Visibility: greater than 7 mile(s):0
Temperature: 95 F (35 C)
Dew Point: 35 F (2 C)
Relative Humidity: 12%
Pressure (altimeter): 29.85 in. Hg (1011 hPa)
ob: ORER 161000Z 33012KT CAVOK 35/02 Q1011
cycle: 10

Station Type Date Time Source
ORER TAF 2021/09/16 06:27 UTC NOAA

TAF ORER 160400Z 1606/1706 27010KT 6000 NSC
BECMG 1618/1620 VRB02KT

Example: see airport list